createdAt,value
2019-03-28T00:00:19.550Z,41.65
2019-03-28T00:02:48.096Z,37.17
2019-03-28T00:05:17.105Z,35.73
2019-03-28T00:07:45.693Z,34.92
2019-03-28T00:10:14.646Z,35.95
2019-03-28T00:12:43.133Z,35.45
2019-03-28T00:15:11.873Z,33.60
2019-03-28T00:17:40.421Z,35.95
2019-03-28T00:20:09.615Z,39.03
2019-03-28T00:22:40.195Z,37.45
2019-03-28T00:25:10.524Z,39.55
2019-03-28T00:27:39.053Z,39.18
2019-03-28T00:30:09.939Z,35.65
2019-03-28T00:32:38.428Z,39.73
2019-03-28T00:35:07.453Z,40.17
2019-03-28T00:37:35.972Z,38.17
2019-03-28T00:40:06.288Z,43.42
2019-03-28T00:42:35.138Z,40.95
2019-03-28T00:45:04.897Z,42.25
2019-03-28T00:47:33.389Z,44.75
2019-03-28T00:50:01.881Z,43.45
2019-03-28T00:52:30.401Z,38.78
2019-03-28T00:54:58.886Z,44.55
2019-03-28T00:57:27.440Z,37.60
2019-03-28T00:59:55.993Z,43.90
2019-03-28T01:02:24.799Z,43.80
2019-03-28T01:04:53.337Z,43.05
2019-03-28T01:07:22.101Z,44.98
2019-03-28T01:09:50.609Z,42.35
2019-03-28T01:12:19.093Z,40.85
2019-03-28T01:14:47.668Z,43.38
2019-03-28T01:17:16.205Z,44.42
2019-03-28T01:19:44.738Z,45.50
2019-03-28T01:22:13.188Z,41.60
2019-03-28T01:24:41.709Z,50.15
2019-03-28T01:27:10.235Z,44.55
2019-03-28T01:29:38.719Z,47.58
2019-03-28T01:32:07.244Z,45.38
2019-03-28T01:34:35.738Z,52.70
2019-03-28T01:37:04.450Z,48.68
2019-03-28T01:39:32.983Z,41.85
2019-03-28T01:42:01.442Z,49.38
2019-03-28T01:44:29.913Z,49.50
2019-03-28T01:46:58.377Z,47.43
2019-03-28T01:49:26.829Z,45.80
2019-03-28T01:51:56.143Z,43.98
2019-03-28T01:54:25.075Z,46.95
2019-03-28T01:56:53.621Z,47.53
2019-03-28T01:59:22.148Z,51.45
2019-03-28T02:01:50.609Z,45.38
2019-03-28T02:04:19.098Z,48.55
2019-03-28T02:06:47.637Z,48.28
2019-03-28T02:09:16.096Z,52.60
2019-03-28T02:11:44.576Z,46.68
2019-03-28T02:14:13.196Z,50.15
2019-03-28T02:16:41.654Z,46.23
2019-03-28T02:19:10.272Z,48.78
2019-03-28T02:21:38.906Z,48.15
2019-03-28T02:24:07.450Z,46.37
2019-03-28T02:26:35.984Z,49.00
2019-03-28T02:29:04.464Z,51.45
2019-03-28T02:31:33.014Z,47.88
2019-03-28T02:34:01.574Z,51.30
2019-03-28T02:36:30.220Z,53.35
2019-03-28T02:38:58.936Z,47.93
2019-03-28T02:41:27.508Z,45.83
2019-03-28T02:43:56.041Z,48.90
2019-03-28T02:46:24.500Z,52.78
2019-03-28T02:48:53.765Z,46.73
2019-03-28T02:51:22.523Z,46.30
2019-03-28T02:53:50.984Z,43.90
2019-03-28T02:56:19.569Z,38.53
2019-03-28T02:58:48.098Z,44.27
2019-03-28T03:01:16.577Z,46.25
2019-03-28T03:03:45.092Z,37.98
2019-03-28T03:06:14.169Z,42.45
2019-03-28T03:08:42.647Z,42.27
2019-03-28T03:11:11.102Z,41.48
2019-03-28T03:13:39.559Z,39.20
2019-03-28T03:16:11.964Z,47.62
2019-03-28T03:18:39.941Z,42.38
2019-03-28T03:21:09.861Z,40.03
2019-03-28T03:23:38.720Z,38.33
2019-03-28T03:26:07.284Z,41.92
2019-03-28T03:28:35.919Z,40.70
2019-03-28T03:31:04.455Z,41.05
2019-03-28T03:33:32.979Z,36.33
2019-03-28T03:36:04.288Z,45.00
2019-03-28T03:38:32.845Z,40.52
2019-03-28T03:41:01.647Z,38.73
2019-03-28T03:43:30.246Z,40.78
2019-03-28T03:46:18.109Z,38.88
2019-03-28T03:48:46.586Z,40.28
2019-03-28T03:51:15.115Z,41.25
2019-03-28T03:53:43.577Z,45.85
2019-03-28T03:56:12.075Z,42.00
2019-03-28T03:58:40.642Z,40.25
2019-03-28T04:01:09.184Z,40.05
2019-03-28T04:03:37.732Z,42.35
2019-03-28T04:06:06.279Z,42.88
2019-03-28T04:08:34.819Z,40.33
2019-03-28T04:11:03.392Z,45.28
2019-03-28T04:13:31.949Z,37.73
2019-03-28T04:16:00.492Z,35.92
2019-03-28T04:18:29.020Z,34.60
2019-03-28T04:20:57.488Z,34.58
2019-03-28T04:23:25.941Z,37.10
2019-03-28T04:25:54.390Z,35.45
2019-03-28T04:28:31.429Z,37.78
2019-03-28T04:30:53.094Z,36.63
2019-03-28T04:33:21.621Z,35.92
2019-03-28T04:35:50.090Z,38.35
2019-03-28T04:38:18.653Z,36.85
2019-03-28T04:40:47.349Z,34.30
2019-03-28T04:43:15.882Z,37.58
2019-03-28T04:45:44.345Z,37.42
2019-03-28T04:48:12.793Z,37.10
2019-03-28T04:50:43.074Z,35.23
2019-03-28T04:53:11.746Z,38.00
2019-03-28T04:55:40.263Z,33.30
2019-03-28T04:58:08.797Z,36.45
2019-03-28T05:00:37.263Z,34.33
2019-03-28T05:03:05.812Z,33.28
2019-03-28T05:05:34.362Z,30.15
2019-03-28T05:08:03.072Z,35.30
2019-03-28T05:10:33.125Z,34.98
2019-03-28T05:13:02.336Z,36.45
2019-03-28T05:15:30.823Z,30.32
2019-03-28T05:17:59.349Z,32.80
2019-03-28T05:20:27.882Z,30.45
2019-03-28T05:22:56.357Z,33.08
2019-03-28T05:25:24.810Z,35.15
2019-03-28T05:27:53.288Z,34.00
2019-03-28T05:30:21.744Z,30.77
2019-03-28T05:32:50.236Z,31.65
2019-03-28T05:35:18.775Z,33.73
2019-03-28T05:37:47.297Z,31.25
2019-03-28T05:40:15.953Z,29.82
2019-03-28T05:42:47.451Z,29.32
2019-03-28T05:45:16.280Z,31.07
2019-03-28T05:47:44.768Z,29.48
2019-03-28T05:50:13.496Z,29.63
2019-03-28T05:52:42.040Z,31.42
2019-03-28T05:55:10.589Z,31.00
2019-03-28T05:57:39.228Z,29.82
2019-03-28T06:00:08.353Z,30.15
2019-03-28T06:02:36.872Z,32.08
2019-03-28T06:05:07.014Z,31.07
2019-03-28T06:07:36.332Z,33.42
2019-03-28T06:10:08.033Z,27.10
2019-03-28T06:12:36.595Z,38.92
2019-03-28T06:15:07.697Z,33.35
2019-03-28T06:17:36.204Z,34.43
2019-03-28T06:20:07.045Z,29.72
2019-03-28T06:22:35.586Z,26.80
2019-03-28T06:25:05.938Z,33.95
2019-03-28T06:27:34.626Z,32.08
2019-03-28T06:30:03.293Z,37.67
2019-03-28T06:32:42.300Z,42.17
2019-03-28T06:35:02.045Z,31.23
2019-03-28T06:37:32.499Z,35.13
2019-03-28T06:40:01.441Z,30.80
2019-03-28T06:42:30.486Z,33.95
2019-03-28T06:44:58.936Z,32.63
2019-03-28T06:47:27.393Z,29.75
2019-03-28T06:49:55.865Z,33.95
2019-03-28T06:52:24.387Z,28.55
2019-03-28T06:54:52.844Z,30.35
2019-03-28T06:57:21.346Z,30.20
2019-03-28T06:59:49.873Z,24.92
2019-03-28T07:02:18.320Z,30.02
2019-03-28T07:04:46.795Z,28.25
2019-03-28T07:07:18.315Z,22.27
2019-03-28T07:09:45.501Z,20.95
2019-03-28T07:12:13.988Z,28.83
2019-03-28T07:14:42.545Z,25.85
2019-03-28T07:17:11.026Z,25.32
2019-03-28T07:19:39.564Z,22.93
2019-03-28T07:22:08.049Z,20.05
2019-03-28T07:24:36.607Z,27.32
2019-03-28T07:27:05.167Z,28.95
2019-03-28T07:29:33.717Z,23.55
2019-03-28T07:32:02.315Z,33.18
2019-03-28T07:34:30.868Z,28.98
2019-03-28T07:36:59.394Z,32.30
2019-03-28T07:39:27.958Z,28.35
2019-03-28T07:41:56.484Z,27.00
2019-03-28T07:44:24.955Z,32.73
2019-03-28T07:46:53.497Z,28.02
2019-03-28T07:49:22.072Z,30.00
2019-03-28T07:51:50.605Z,34.70
2019-03-28T07:54:19.132Z,33.83
2019-03-28T07:56:47.618Z,29.80
2019-03-28T07:59:16.156Z,31.68
2019-03-28T08:01:44.693Z,35.98
2019-03-28T08:04:13.189Z,38.38
2019-03-28T08:06:49.618Z,35.85
2019-03-28T08:09:11.966Z,35.92
2019-03-28T08:11:40.432Z,27.48
2019-03-28T08:14:08.989Z,35.90
2019-03-28T08:16:37.782Z,38.85
2019-03-28T08:19:07.957Z,41.18
2019-03-28T08:21:36.785Z,30.72
2019-03-28T08:24:05.426Z,47.93
2019-03-28T08:26:34.018Z,36.15
2019-03-28T08:29:02.564Z,31.65
2019-03-28T08:31:31.043Z,26.25
2019-03-28T08:34:01.866Z,27.35
2019-03-28T08:36:29.933Z,29.00
2019-03-28T08:38:58.492Z,25.02
2019-03-28T08:41:27.029Z,28.95
2019-03-28T08:43:55.477Z,30.92
2019-03-28T08:46:23.965Z,25.70
2019-03-28T08:48:52.484Z,20.72
2019-03-28T08:51:20.970Z,21.48
2019-03-28T08:53:50.278Z,22.52
2019-03-28T08:56:18.781Z,23.52
2019-03-28T08:58:47.333Z,20.92
2019-03-28T09:01:15.852Z,21.70
2019-03-28T09:03:44.345Z,25.43
2019-03-28T09:06:12.888Z,18.57
2019-03-28T09:08:41.349Z,25.20
2019-03-28T09:11:10.131Z,21.87
2019-03-28T09:13:38.603Z,19.45
2019-03-28T09:16:07.228Z,22.07
2019-03-28T09:18:35.773Z,14.50
2019-03-28T09:21:04.300Z,20.30
2019-03-28T09:23:32.752Z,20.88
2019-03-28T09:26:04.199Z,16.95
2019-03-28T09:28:31.412Z,18.67
2019-03-28T09:31:00.268Z,18.15
2019-03-28T09:33:29.234Z,17.10
2019-03-28T09:35:57.685Z,15.90
2019-03-28T09:38:26.583Z,20.65
2019-03-28T09:40:57.813Z,19.85
2019-03-28T09:43:26.368Z,18.73
2019-03-28T09:45:54.861Z,21.70
2019-03-28T09:48:23.402Z,26.57
2019-03-28T09:50:56.003Z,20.20
2019-03-28T09:53:24.656Z,20.00
2019-03-28T09:55:54.729Z,24.80
2019-03-28T09:58:23.180Z,21.70
2019-03-28T10:01:02.717Z,23.27
2019-03-28T10:03:25.180Z,18.05
2019-03-28T10:05:53.712Z,17.77
2019-03-28T10:08:22.188Z,19.52
2019-03-28T10:10:55.981Z,18.40
2019-03-28T10:13:24.498Z,18.12
2019-03-28T10:15:53.153Z,20.88
2019-03-28T10:18:21.674Z,15.10
2019-03-28T10:20:53.855Z,22.15
2019-03-28T10:23:22.380Z,18.45
2019-03-28T10:25:50.872Z,16.65
2019-03-28T10:28:19.399Z,17.48
2019-03-28T10:30:57.513Z,16.37
2019-03-28T10:33:26.068Z,18.17
2019-03-28T10:35:54.529Z,14.50
2019-03-28T10:38:23.016Z,22.17
2019-03-28T10:40:58.708Z,16.70
2019-03-28T10:43:27.278Z,22.35
2019-03-28T10:45:55.804Z,20.00
2019-03-28T10:48:24.256Z,15.75
2019-03-28T10:50:56.000Z,14.47
2019-03-28T10:53:25.450Z,19.15
2019-03-28T10:55:53.939Z,20.10
2019-03-28T10:58:22.411Z,17.35
2019-03-28T11:00:50.874Z,15.00
2019-03-28T11:03:19.340Z,12.90
2019-03-28T11:05:47.881Z,21.80
2019-03-28T11:08:16.620Z,20.45
2019-03-28T11:13:33.904Z,16.82
2019-03-28T11:16:02.521Z,18.50
2019-03-28T11:18:30.976Z,16.50
2019-03-28T11:20:59.433Z,20.77
2019-03-28T11:23:27.889Z,23.32
2019-03-28T11:25:57.399Z,20.48
2019-03-28T11:28:26.203Z,26.97
2019-03-28T11:30:54.749Z,21.85
2019-03-28T11:33:23.453Z,22.37
2019-03-28T11:35:51.892Z,26.97
2019-03-28T11:38:39.683Z,21.55
2019-03-28T11:43:39.821Z,23.52
2019-03-28T11:46:08.278Z,26.97
2019-03-28T11:48:36.875Z,28.40
2019-03-28T11:51:05.440Z,27.73
2019-03-28T11:53:33.994Z,23.95
2019-03-28T11:56:02.541Z,28.17
2019-03-28T11:58:31.093Z,24.25
2019-03-28T12:01:00.609Z,27.25
2019-03-28T12:03:29.194Z,33.00
2019-03-28T12:05:57.689Z,35.40
2019-03-28T12:08:26.256Z,27.30
2019-03-28T12:10:54.820Z,24.37
2019-03-28T12:13:23.300Z,20.90
2019-03-28T12:15:51.846Z,33.48
2019-03-28T12:18:20.364Z,28.83
2019-03-28T12:20:57.788Z,24.77
2019-03-28T12:23:26.314Z,27.65
2019-03-28T12:25:54.863Z,32.15
2019-03-28T12:28:23.461Z,27.73
2019-03-28T12:30:51.960Z,28.55
2019-03-28T12:33:20.418Z,26.20
2019-03-28T12:35:48.919Z,34.20
2019-03-28T12:38:17.469Z,28.25
2019-03-28T12:40:46.023Z,29.40
2019-03-28T12:43:14.595Z,32.83
2019-03-28T12:45:43.306Z,29.60
2019-03-28T12:48:11.787Z,19.05
2019-03-28T12:50:40.372Z,26.35
2019-03-28T12:53:08.874Z,22.87
2019-03-28T12:55:37.389Z,18.70
2019-03-28T12:58:05.865Z,16.55
2019-03-28T13:00:35.644Z,15.45
2019-03-28T13:03:04.583Z,17.32
2019-03-28T13:05:34.709Z,19.73
2019-03-28T13:08:03.276Z,21.62
2019-03-28T13:10:31.750Z,25.57
2019-03-28T13:13:00.250Z,20.90
2019-03-28T13:15:28.700Z,21.85
2019-03-28T13:17:57.541Z,20.68
2019-03-28T13:20:26.027Z,22.93
2019-03-28T13:22:54.541Z,22.75
2019-03-28T13:25:22.992Z,25.12
2019-03-28T13:27:51.562Z,20.68
2019-03-28T13:30:20.347Z,19.77
2019-03-28T13:32:49.260Z,19.25
2019-03-28T13:35:17.839Z,24.27
2019-03-28T13:37:46.258Z,16.17
2019-03-28T13:40:14.955Z,20.88
2019-03-28T13:42:43.338Z,17.57
2019-03-28T13:45:12.511Z,18.20
2019-03-28T13:47:40.926Z,23.02
2019-03-28T13:50:10.895Z,20.70
2019-03-28T13:52:39.290Z,20.97
2019-03-28T13:55:08.034Z,19.10
2019-03-28T13:57:36.864Z,22.40
2019-03-28T14:00:07.178Z,18.65
2019-03-28T14:02:36.024Z,20.05
2019-03-28T14:05:06.996Z,17.98
2019-03-28T14:07:35.972Z,19.55
2019-03-28T14:10:06.338Z,19.25
2019-03-28T14:12:34.771Z,17.67
2019-03-28T14:15:03.196Z,17.12
2019-03-28T14:17:34.723Z,19.10
2019-03-28T14:20:01.749Z,16.77
2019-03-28T14:22:30.151Z,15.45
2019-03-28T14:24:58.592Z,16.05
2019-03-28T14:27:27.019Z,20.10
2019-03-28T14:29:55.454Z,23.90
2019-03-28T14:32:23.893Z,15.38
2019-03-28T14:34:52.311Z,21.12
2019-03-28T14:37:20.727Z,24.77
2019-03-28T14:39:49.438Z,17.35
2019-03-28T14:42:19.723Z,15.65
2019-03-28T14:44:48.099Z,17.17
2019-03-28T14:47:16.512Z,17.67
2019-03-28T14:49:44.981Z,18.60
2019-03-28T14:52:13.441Z,14.75
2019-03-28T14:54:41.943Z,17.42
2019-03-28T14:57:10.929Z,16.73
2019-03-28T14:59:40.695Z,22.07
2019-03-28T15:02:09.130Z,16.32
2019-03-28T15:04:37.547Z,18.17
2019-03-28T15:07:07.499Z,13.83
2019-03-28T15:09:36.000Z,14.98
2019-03-28T15:12:04.406Z,16.25
2019-03-28T15:14:32.837Z,15.70
2019-03-28T15:17:01.265Z,12.45
2019-03-28T15:19:29.692Z,18.87
2019-03-28T15:21:58.196Z,13.50
2019-03-28T15:24:26.623Z,12.40
2019-03-28T15:26:55.348Z,14.93
2019-03-28T15:29:24.305Z,17.40
2019-03-28T15:31:52.754Z,21.25
2019-03-28T15:34:21.171Z,17.12
2019-03-28T15:36:49.594Z,20.95
2019-03-28T15:39:18.028Z,18.17
2019-03-28T15:41:49.301Z,20.02
2019-03-28T15:44:17.775Z,18.77
2019-03-28T15:46:46.210Z,18.70
2019-03-28T15:49:14.619Z,17.87
2019-03-28T15:51:43.058Z,16.93
2019-03-28T15:54:11.454Z,16.15
2019-03-28T15:56:39.880Z,15.23
2019-03-28T15:59:08.298Z,11.88
2019-03-28T16:01:36.734Z,16.37
2019-03-28T16:04:05.169Z,15.85
2019-03-28T16:06:33.600Z,14.30
2019-03-28T16:09:02.027Z,18.17
2019-03-28T16:11:32.293Z,14.33
2019-03-28T16:14:00.864Z,17.20
2019-03-28T16:16:29.307Z,14.03
2019-03-28T16:18:57.731Z,19.27
2019-03-28T16:21:26.920Z,17.10
2019-03-28T16:23:55.537Z,17.20
2019-03-28T16:26:24.059Z,15.00
2019-03-28T16:28:52.499Z,11.38
2019-03-28T16:31:20.918Z,17.23
2019-03-28T16:33:49.334Z,15.72
2019-03-28T16:36:17.752Z,14.30
2019-03-28T16:38:46.170Z,15.05
2019-03-28T16:41:14.599Z,15.08
2019-03-28T16:43:42.994Z,15.25
2019-03-28T16:46:11.398Z,14.93
2019-03-28T16:48:39.845Z,16.07
2019-03-28T16:51:08.267Z,19.07
2019-03-28T16:53:36.735Z,19.27
2019-03-28T16:56:05.163Z,18.10
2019-03-28T16:58:33.576Z,15.43
2019-03-28T17:01:01.982Z,18.85
2019-03-28T17:03:30.415Z,19.82
2019-03-28T17:05:59.161Z,21.87
2019-03-28T17:08:28.699Z,24.55
2019-03-28T17:10:57.607Z,26.27
2019-03-28T17:13:26.310Z,27.85
2019-03-28T17:15:54.738Z,19.65
2019-03-28T17:18:23.168Z,25.97
2019-03-28T17:20:51.631Z,26.20
2019-03-28T17:23:20.474Z,35.40
2019-03-28T17:25:49.250Z,31.23
2019-03-28T17:28:36.999Z,24.90
2019-03-28T17:31:05.445Z,27.17
2019-03-28T17:33:33.851Z,22.82
2019-03-28T17:36:02.279Z,25.00
2019-03-28T17:38:30.705Z,25.48
2019-03-28T17:40:59.151Z,26.05
2019-03-28T17:43:27.578Z,25.05
2019-03-28T17:45:56.091Z,28.20
2019-03-28T17:48:24.526Z,27.30
2019-03-28T17:50:58.917Z,27.58
2019-03-28T17:53:27.319Z,32.70
2019-03-28T17:55:55.974Z,32.13
2019-03-28T17:58:24.566Z,28.07
2019-03-28T18:00:54.518Z,29.35
2019-03-28T18:03:31.132Z,33.63
2019-03-28T18:05:58.349Z,26.48
2019-03-28T18:08:23.202Z,30.72
2019-03-28T18:11:00.349Z,25.15
2019-03-28T18:13:28.020Z,26.50
2019-03-28T18:15:56.446Z,25.97
2019-03-28T18:18:24.866Z,36.17
2019-03-28T18:20:59.227Z,29.87
2019-03-28T18:23:27.670Z,31.30
2019-03-28T18:25:56.098Z,34.98
2019-03-28T18:28:24.717Z,31.57
2019-03-28T18:30:54.789Z,28.98
2019-03-28T18:33:23.208Z,30.12
2019-03-28T18:35:51.648Z,30.20
2019-03-28T18:38:20.086Z,31.93
2019-03-28T18:40:58.727Z,35.50
2019-03-28T18:43:27.149Z,34.23
2019-03-28T18:45:55.558Z,36.73
2019-03-28T18:48:30.837Z,32.48
2019-03-28T18:53:20.635Z,31.77
2019-03-28T18:55:49.060Z,30.17
2019-03-28T18:58:17.504Z,33.98
2019-03-28T19:00:48.280Z,33.50
2019-03-28T19:03:16.843Z,33.60
2019-03-28T19:05:45.249Z,30.12
2019-03-28T19:08:13.670Z,33.78
2019-03-28T19:10:42.074Z,30.17
2019-03-28T19:13:10.503Z,27.62
2019-03-28T19:15:38.898Z,26.87
2019-03-28T19:18:07.331Z,34.00
2019-03-28T19:20:36.000Z,33.58
2019-03-28T19:23:07.133Z,35.43
2019-03-28T19:25:34.988Z,33.88
2019-03-28T19:28:03.461Z,40.60
2019-03-28T19:30:33.119Z,39.08
2019-03-28T19:33:01.628Z,39.67
2019-03-28T19:35:33.085Z,36.38
2019-03-28T19:38:01.467Z,35.30
2019-03-28T19:40:29.894Z,33.23
2019-03-28T19:42:58.302Z,35.98
2019-03-28T19:45:29.807Z,40.12
2019-03-28T19:47:58.235Z,38.05
2019-03-28T19:50:29.288Z,42.75
2019-03-28T19:52:57.581Z,38.53
2019-03-28T19:55:26.239Z,35.58
2019-03-28T19:57:54.679Z,31.20
2019-03-28T20:00:23.140Z,37.17
2019-03-28T20:02:51.623Z,33.38
2019-03-28T20:05:20.157Z,33.23
2019-03-28T20:07:48.579Z,29.40
2019-03-28T20:10:18.587Z,33.23
2019-03-28T20:12:47.156Z,38.08
2019-03-28T20:15:16.369Z,34.30
2019-03-28T20:17:47.777Z,36.83
2019-03-28T20:20:15.238Z,34.38
2019-03-28T20:22:44.997Z,34.23
2019-03-28T20:25:13.643Z,30.20
2019-03-28T20:27:42.043Z,34.38
2019-03-28T20:30:10.917Z,35.40
2019-03-28T20:32:39.357Z,34.30
2019-03-28T20:35:10.502Z,34.20
2019-03-28T20:37:38.346Z,36.00
2019-03-28T20:40:08.226Z,33.98
2019-03-28T20:42:36.655Z,40.58
2019-03-28T20:45:07.930Z,30.35
2019-03-28T20:47:36.584Z,38.55
2019-03-28T20:50:07.280Z,42.62
2019-03-28T20:52:35.676Z,35.17
2019-03-28T20:55:05.777Z,39.03
2019-03-28T20:57:34.204Z,38.17
2019-03-28T21:00:02.874Z,42.10
2019-03-28T21:02:31.305Z,35.10
2019-03-28T21:05:00.777Z,41.85
2019-03-28T21:07:29.532Z,33.95
2019-03-28T21:09:57.951Z,33.83
2019-03-28T21:12:26.363Z,40.52
2019-03-28T21:14:54.810Z,35.63
2019-03-28T21:17:23.395Z,38.88
2019-03-28T21:19:51.858Z,47.20
2019-03-28T21:22:20.905Z,39.40
2019-03-28T21:24:49.610Z,44.70
2019-03-28T21:27:20.621Z,40.43
2019-03-28T21:29:49.349Z,44.77
2019-03-28T21:32:18.957Z,45.67
2019-03-28T21:34:47.654Z,51.13
2019-03-28T21:37:16.268Z,46.35
2019-03-28T21:39:44.714Z,52.13
2019-03-28T21:42:13.147Z,44.90
2019-03-28T21:44:41.551Z,43.73
2019-03-28T21:47:09.958Z,45.63
2019-03-28T21:49:38.382Z,47.10
2019-03-28T21:52:07.653Z,46.45
2019-03-28T21:54:36.302Z,46.77
2019-03-28T21:57:04.721Z,42.62
2019-03-28T21:59:33.139Z,47.30
2019-03-28T22:02:01.577Z,37.53
2019-03-28T22:04:30.006Z,41.10
2019-03-28T22:06:58.422Z,42.30
2019-03-28T22:09:26.836Z,43.28
2019-03-28T22:11:55.256Z,43.83
2019-03-28T22:14:23.655Z,40.43
2019-03-28T22:16:52.088Z,44.53
2019-03-28T22:19:20.475Z,40.17
2019-03-28T22:21:48.900Z,41.85
2019-03-28T22:24:17.323Z,31.95
2019-03-28T22:26:46.146Z,26.33
2019-03-28T22:29:15.119Z,26.70
2019-03-28T22:31:43.550Z,25.60
2019-03-28T22:34:11.955Z,28.90
2019-03-28T22:36:40.358Z,25.02
2019-03-28T22:39:08.767Z,23.85
2019-03-28T22:41:37.183Z,23.62
2019-03-28T22:44:05.806Z,27.93
2019-03-28T22:46:34.199Z,26.93
2019-03-28T22:49:02.622Z,26.82
2019-03-28T22:51:31.773Z,33.48
2019-03-28T22:54:00.453Z,35.68
2019-03-28T22:56:28.848Z,32.25
2019-03-28T22:58:57.263Z,34.98
2019-03-28T23:01:25.929Z,33.33
2019-03-28T23:03:54.334Z,32.40
2019-03-28T23:06:23.041Z,32.78
2019-03-28T23:08:51.621Z,29.40
2019-03-28T23:11:20.045Z,28.20
2019-03-28T23:13:48.559Z,28.55
2019-03-28T23:16:16.986Z,23.42
2019-03-28T23:18:45.435Z,36.45
2019-03-28T23:21:13.830Z,29.30
2019-03-28T23:23:42.246Z,31.37
2019-03-28T23:26:10.684Z,22.87
2019-03-28T23:28:39.110Z,25.60
2019-03-28T23:31:26.875Z,27.75
2019-03-28T23:33:56.255Z,26.68
2019-03-28T23:36:25.382Z,33.20
2019-03-28T23:38:53.796Z,28.83
2019-03-28T23:41:22.234Z,32.80
2019-03-28T23:43:50.711Z,56.42
2019-03-28T23:46:19.113Z,65.00
2019-03-28T23:48:47.991Z,34.73
2019-03-28T23:51:16.666Z,28.07
2019-03-28T23:53:45.084Z,22.17
2019-03-28T23:56:13.479Z,21.55
2019-03-28T23:58:42.064Z,27.05
